createdAt,value
2022-08-03T00:00:34.572Z,99470.97
2022-08-03T00:03:03.078Z,99468.47
2022-08-03T00:05:33.161Z,99463.19
2022-08-03T00:08:01.879Z,99474.84
2022-08-03T00:10:30.737Z,99471.28
2022-08-03T00:13:00.568Z,99472.13
2022-08-03T00:15:28.955Z,99469.72
2022-08-03T00:17:57.143Z,99470.97
2022-08-03T00:20:25.937Z,99469.91
2022-08-03T00:22:54.164Z,99470.09
2022-08-03T00:25:22.440Z,99469.72
2022-08-03T00:27:50.606Z,99471.63
2022-08-03T00:30:20.673Z,99470.72
2022-08-03T00:32:49.551Z,99477.84
2022-08-03T00:35:37.069Z,99476.78
2022-08-03T00:38:06.980Z,99470.41
2022-08-03T00:40:35.633Z,99471.13
2022-08-03T00:43:04.999Z,99470.41
2022-08-03T00:45:35.716Z,99475.72
2022-08-03T00:48:04.449Z,99473.03
2022-08-03T00:50:34.784Z,99464.97
2022-08-03T00:53:04.428Z,99467.22
2022-08-03T00:55:32.959Z,99470.78
2022-08-03T00:58:05.144Z,99466.56
2022-08-03T01:00:36.341Z,99464.00
2022-08-03T01:03:04.726Z,99464.06
2022-08-03T01:05:35.159Z,99468.94
2022-08-03T01:08:05.253Z,99459.75
2022-08-03T01:10:38.585Z,99462.72
2022-08-03T01:13:59.215Z,99462.28
2022-08-03T01:16:04.331Z,99457.16
2022-08-03T01:18:37.701Z,99458.28
2022-08-03T01:21:11.199Z,99466.31
2022-08-03T01:23:49.412Z,99461.50
2022-08-03T01:26:27.538Z,99458.28
2022-08-03T01:29:09.099Z,99459.22
2022-08-03T01:32:58.463Z,99461.19
2022-08-03T01:34:36.914Z,99456.28
2022-08-03T01:37:07.398Z,99460.97
2022-08-03T01:39:38.924Z,99456.41
2022-08-03T01:42:09.372Z,99462.38
2022-08-03T01:44:40.747Z,99467.19
2022-08-03T01:47:12.126Z,99465.16
2022-08-03T01:49:42.300Z,99468.88
2022-08-03T01:52:11.111Z,99462.75
2022-08-03T01:54:43.277Z,99460.31
2022-08-03T01:57:12.116Z,99463.13
2022-08-03T01:59:41.164Z,99474.56
2022-08-03T02:02:29.075Z,99470.03
2022-08-03T02:05:02.587Z,99468.50
2022-08-03T02:07:32.359Z,99472.94
2022-08-03T02:10:01.553Z,99466.09
2022-08-03T02:12:32.756Z,99478.53
2022-08-03T02:15:21.793Z,99466.53
2022-08-03T02:17:51.716Z,99469.34
2022-08-03T02:20:20.865Z,99471.72
2022-08-03T02:22:49.145Z,99476.53
2022-08-03T02:25:18.210Z,99472.25
2022-08-03T02:27:50.204Z,99466.47
2022-08-03T02:30:19.447Z,99471.03
2022-08-03T02:32:52.975Z,99466.16
2022-08-03T02:35:24.462Z,99482.72
2022-08-03T02:37:54.065Z,99487.38
2022-08-03T02:40:24.403Z,99479.88
2022-08-03T02:42:54.771Z,99486.75
2022-08-03T02:45:25.635Z,99481.88
2022-08-03T02:47:55.875Z,99482.66
2022-08-03T02:50:26.332Z,99487.81
2022-08-03T02:52:56.371Z,99486.63
2022-08-03T02:55:26.654Z,99481.19
2022-08-03T02:57:55.718Z,99487.38
2022-08-03T03:00:27.939Z,99487.19
2022-08-03T03:02:58.764Z,99485.75
2022-08-03T03:05:53.625Z,99490.53
2022-08-03T03:08:20.857Z,99492.56
2022-08-03T03:10:56.275Z,99495.03
2022-08-03T03:13:25.315Z,99490.38
2022-08-03T03:15:54.292Z,99496.09
2022-08-03T03:18:23.242Z,99494.13
2022-08-03T03:20:53.557Z,99493.84
2022-08-03T03:23:22.772Z,99494.91
2022-08-03T03:25:51.404Z,99495.25
2022-08-03T03:28:19.916Z,99496.94
2022-08-03T03:30:53.068Z,99494.97
2022-08-03T03:33:21.880Z,99504.13
2022-08-03T03:35:50.317Z,99497.63
2022-08-03T03:38:20.595Z,99505.72
2022-08-03T03:40:51.397Z,99505.53
2022-08-03T03:43:20.046Z,99498.59
2022-08-03T03:45:49.015Z,99496.66
2022-08-03T03:48:17.595Z,99508.56
2022-08-03T03:50:46.178Z,99507.72
2022-08-03T03:53:15.834Z,99516.03
2022-08-03T03:56:02.087Z,99513.34
2022-08-03T03:58:31.822Z,99517.81
2022-08-03T04:01:00.356Z,99516.63
2022-08-03T04:03:28.764Z,99515.50
2022-08-03T04:06:14.315Z,99516.63
2022-08-03T04:09:00.006Z,99517.75
2022-08-03T04:11:32.051Z,99518.00
2022-08-03T04:14:03.114Z,99523.97
2022-08-03T04:16:32.836Z,99521.75
2022-08-03T04:19:03.327Z,99532.38
2022-08-03T04:21:32.061Z,99521.41
2022-08-03T04:24:01.604Z,99521.63
2022-08-03T04:26:33.284Z,99521.84
2022-08-03T04:29:02.153Z,99534.41
2022-08-03T04:31:31.419Z,99528.38
2022-08-03T04:34:00.780Z,99526.59
2022-08-03T04:36:32.709Z,99530.41
2022-08-03T04:39:03.866Z,99532.63
2022-08-03T04:41:33.770Z,99545.31
2022-08-03T04:44:23.119Z,99537.25
2022-08-03T04:46:57.761Z,99549.13
2022-08-03T04:49:26.684Z,99538.78
2022-08-03T04:51:55.151Z,99543.50
2022-08-03T04:54:23.634Z,99545.13
2022-08-03T04:56:53.345Z,99535.00
2022-08-03T04:59:30.085Z,99531.16
2022-08-03T05:01:58.772Z,99539.13
2022-08-03T05:04:27.117Z,99542.69
2022-08-03T05:06:55.858Z,99532.47
2022-08-03T05:09:46.078Z,99537.69
2022-08-03T05:12:14.047Z,99535.84
2022-08-03T05:14:42.501Z,99536.91
2022-08-03T05:17:10.688Z,99542.56
2022-08-03T05:19:38.997Z,99532.59
2022-08-03T05:22:07.280Z,99531.50
2022-08-03T05:24:35.611Z,99532.31
2022-08-03T05:27:03.865Z,99534.19
2022-08-03T05:29:33.725Z,99538.00
2022-08-03T05:32:08.013Z,99540.44
2022-08-03T05:34:36.736Z,99547.28
2022-08-03T05:37:21.355Z,99546.44
2022-08-03T05:39:49.862Z,99545.09
2022-08-03T05:42:18.231Z,99543.09
2022-08-03T05:44:48.066Z,99541.16
2022-08-03T05:47:16.514Z,99546.75
2022-08-03T05:49:44.751Z,99546.56
2022-08-03T05:52:14.260Z,99538.09
2022-08-03T05:54:55.985Z,99549.22
2022-08-03T05:57:26.208Z,99549.94
2022-08-03T05:59:58.661Z,99547.75
2022-08-03T06:02:27.349Z,99549.84
2022-08-03T06:04:55.568Z,99539.84
2022-08-03T06:07:27.892Z,99538.78
2022-08-03T06:10:37.165Z,99546.53
2022-08-03T06:12:49.457Z,99546.84
2022-08-03T06:15:21.765Z,99540.03
2022-08-03T06:18:01.773Z,99532.53
2022-08-03T06:20:30.465Z,99546.06
2022-08-03T06:23:00.404Z,99541.88
2022-08-03T06:25:31.000Z,99541.25
2022-08-03T06:27:59.633Z,99533.78
2022-08-03T06:30:29.533Z,99537.66
2022-08-03T06:33:04.818Z,99536.69
2022-08-03T06:35:37.295Z,99545.91
2022-08-03T06:38:10.174Z,99550.03
2022-08-03T06:40:40.202Z,99555.84
2022-08-03T06:43:12.572Z,99553.66
2022-08-03T06:45:42.582Z,99547.94
2022-08-03T06:48:11.702Z,99554.38
2022-08-03T06:50:40.720Z,99557.91
2022-08-03T06:53:18.210Z,99555.22
2022-08-03T06:55:54.205Z,99547.41
2022-08-03T06:58:23.779Z,99551.41
2022-08-03T07:00:53.498Z,99559.59
2022-08-03T07:03:22.036Z,99556.34
2022-08-03T07:05:51.420Z,99559.22
2022-08-03T07:08:20.092Z,99552.63
2022-08-03T07:11:03.056Z,99550.53
2022-08-03T07:13:32.667Z,99544.56
2022-08-03T07:16:02.348Z,99556.22
2022-08-03T07:18:30.795Z,99549.91
2022-08-03T07:20:58.984Z,99556.97
2022-08-03T07:23:27.372Z,99566.78
2022-08-03T07:25:55.657Z,99560.91
2022-08-03T07:28:24.015Z,99556.50
2022-08-03T07:30:52.344Z,99561.81
2022-08-03T07:33:22.175Z,99564.38
2022-08-03T07:35:50.516Z,99561.16
2022-08-03T07:38:21.040Z,99562.13
2022-08-03T07:40:49.622Z,99551.91
2022-08-03T07:43:17.879Z,99551.94
2022-08-03T07:45:46.187Z,99560.94
2022-08-03T07:48:14.423Z,99559.59
2022-08-03T07:50:44.235Z,99567.50
2022-08-03T07:53:12.660Z,99559.78
2022-08-03T07:55:40.924Z,99560.59
2022-08-03T07:58:12.543Z,99568.72
2022-08-03T08:00:41.104Z,99571.38
2022-08-03T08:03:10.206Z,99568.25
2022-08-03T08:05:39.083Z,99574.63
2022-08-03T08:08:09.062Z,99572.19
2022-08-03T08:10:37.745Z,99572.34
2022-08-03T08:13:06.221Z,99563.66
2022-08-03T08:15:34.656Z,99567.88
2022-08-03T08:18:02.919Z,99560.50
2022-08-03T08:20:34.929Z,99583.44
2022-08-03T08:23:31.933Z,99569.53
2022-08-03T08:25:57.527Z,99565.72
2022-08-03T08:28:32.666Z,99576.44
2022-08-03T08:31:02.156Z,99562.06
2022-08-03T08:33:48.069Z,99565.47
2022-08-03T08:36:18.941Z,99553.06
2022-08-03T08:38:47.146Z,99550.81
2022-08-03T08:41:16.901Z,99560.19
2022-08-03T08:43:45.220Z,99550.63
2022-08-03T08:46:23.785Z,99560.63
2022-08-03T08:48:53.340Z,99560.13
2022-08-03T08:51:22.492Z,99566.88
2022-08-03T08:53:52.809Z,99550.16
2022-08-03T08:56:25.584Z,99565.97
2022-08-03T08:58:55.577Z,99552.34
2022-08-03T09:01:24.084Z,99558.47
2022-08-03T09:03:54.259Z,99552.84
2022-08-03T09:06:22.863Z,99549.66
2022-08-03T09:08:51.087Z,99565.50
2022-08-03T09:11:52.442Z,99570.25
2022-08-03T09:14:36.666Z,99552.69
2022-08-03T09:17:02.820Z,99562.22
2022-08-03T09:19:31.557Z,99567.25
2022-08-03T09:22:09.932Z,99571.69
2022-08-03T09:24:41.522Z,99570.16
2022-08-03T09:27:13.670Z,99563.34
2022-08-03T09:29:43.340Z,99559.09
2022-08-03T09:32:12.104Z,99556.69
2022-08-03T09:34:40.625Z,99560.25
2022-08-03T09:37:14.172Z,99562.13
2022-08-03T09:39:42.527Z,99562.34
2022-08-03T09:42:14.823Z,99564.75
2022-08-03T09:44:44.404Z,99555.59
2022-08-03T09:47:13.326Z,99563.19
2022-08-03T09:49:42.617Z,99562.34
2022-08-03T09:52:38.198Z,99555.16
2022-08-03T09:55:04.120Z,99557.22
2022-08-03T09:57:33.960Z,99553.03
2022-08-03T10:00:10.457Z,99555.38
2022-08-03T10:02:43.017Z,99549.72
2022-08-03T10:05:19.664Z,99560.00
2022-08-03T10:07:49.075Z,99551.19
2022-08-03T10:10:30.651Z,99549.84
2022-08-03T10:13:01.441Z,99552.81
2022-08-03T10:16:22.447Z,99548.03
2022-08-03T10:18:18.565Z,99560.72
2022-08-03T10:20:48.289Z,99560.13
2022-08-03T10:23:19.440Z,99555.72
2022-08-03T10:25:48.985Z,99557.16
2022-08-03T10:28:20.934Z,99563.69
2022-08-03T10:30:50.422Z,99562.94
2022-08-03T10:33:50.713Z,99557.00
2022-08-03T10:36:11.684Z,99557.19
2022-08-03T10:38:46.725Z,99562.91
2022-08-03T10:41:15.293Z,99554.91
2022-08-03T10:43:54.527Z,99555.03
2022-08-03T10:46:22.970Z,99551.72
2022-08-03T10:48:52.942Z,99560.53
2022-08-03T10:51:21.409Z,99563.13
2022-08-03T10:53:55.557Z,99561.69
2022-08-03T10:56:57.580Z,99561.63
2022-08-03T10:59:48.607Z,99564.53
2022-08-03T11:02:21.240Z,99562.09
2022-08-03T11:05:09.476Z,99560.16
2022-08-03T11:07:37.891Z,99567.13
2022-08-03T11:10:10.418Z,99565.78
2022-08-03T11:12:39.261Z,99554.38
2022-08-03T11:15:08.911Z,99561.56
2022-08-03T11:17:46.846Z,99562.84
2022-08-03T11:20:38.807Z,99565.09
2022-08-03T11:23:07.112Z,99556.13
2022-08-03T11:25:54.941Z,99555.56
2022-08-03T11:28:26.736Z,99546.41
2022-08-03T11:30:55.367Z,99562.66
2022-08-03T11:33:34.325Z,99552.28
2022-08-03T11:36:03.282Z,99549.78
2022-08-03T11:38:31.531Z,99544.34
2022-08-03T11:41:02.732Z,99546.31
2022-08-03T11:43:47.306Z,99553.41
2022-08-03T11:46:28.148Z,99551.28
2022-08-03T11:49:09.282Z,99549.78
2022-08-03T11:51:38.959Z,99541.94
2022-08-03T11:54:08.072Z,99555.44
2022-08-03T11:56:45.341Z,99542.81
2022-08-03T11:59:20.122Z,99546.41
2022-08-03T12:01:49.960Z,99549.38
2022-08-03T12:04:19.774Z,99553.91
2022-08-03T12:06:59.732Z,99536.94
2022-08-03T12:09:28.099Z,99540.00
2022-08-03T12:12:00.664Z,99535.31
2022-08-03T12:14:50.980Z,99539.78
2022-08-03T12:17:18.581Z,99532.69
2022-08-03T12:19:48.520Z,99545.97
2022-08-03T12:22:17.408Z,99542.56
2022-08-03T12:24:47.608Z,99540.47
2022-08-03T12:27:24.385Z,99542.09
2022-08-03T12:29:58.225Z,99545.47
2022-08-03T12:32:27.403Z,99542.44
2022-08-03T12:35:01.298Z,99544.06
2022-08-03T12:37:32.662Z,99546.63
2022-08-03T12:40:09.555Z,99546.44
2022-08-03T12:42:39.810Z,99544.50
2022-08-03T12:45:20.713Z,99538.09
2022-08-03T12:47:53.117Z,99537.47
2022-08-03T12:50:32.917Z,99553.50
2022-08-03T12:53:02.714Z,99540.97
2022-08-03T12:55:57.573Z,99547.22
2022-08-03T12:58:34.690Z,99559.44
2022-08-03T13:01:05.204Z,99560.25
2022-08-03T13:03:49.660Z,99556.00
2022-08-03T13:06:21.104Z,99553.19
2022-08-03T13:08:49.824Z,99549.84
2022-08-03T13:11:22.180Z,99562.94
2022-08-03T13:13:50.594Z,99556.03
2022-08-03T13:16:19.460Z,99556.69
2022-08-03T13:18:48.135Z,99558.78
2022-08-03T13:21:17.003Z,99559.31
2022-08-03T13:23:47.386Z,99556.88
2022-08-03T13:26:15.599Z,99561.00
2022-08-03T13:28:43.827Z,99562.91
2022-08-03T13:31:12.226Z,99550.97
2022-08-03T13:33:41.172Z,99553.84
2022-08-03T13:36:09.516Z,99557.84
2022-08-03T13:38:37.840Z,99560.22
2022-08-03T13:41:07.713Z,99546.41
2022-08-03T13:43:35.957Z,99554.91
2022-08-03T13:46:04.345Z,99553.50
2022-08-03T13:48:37.096Z,99558.84
2022-08-03T13:51:21.676Z,99548.81
2022-08-03T13:53:50.639Z,99551.84
2022-08-03T13:56:24.594Z,99548.53
2022-08-03T13:58:55.129Z,99547.25
2022-08-03T14:01:54.382Z,99551.84
2022-08-03T14:04:15.928Z,99555.47
2022-08-03T14:06:50.915Z,99553.03
2022-08-03T14:09:19.432Z,99551.31
2022-08-03T14:12:06.997Z,99556.81
2022-08-03T14:14:37.637Z,99558.16
2022-08-03T14:17:06.481Z,99564.91
2022-08-03T14:19:52.745Z,99559.72
2022-08-03T14:22:22.052Z,99557.44
2022-08-03T14:24:50.350Z,99563.72
2022-08-03T14:27:21.488Z,99558.66
2022-08-03T14:29:49.955Z,99558.44
2022-08-03T14:32:18.152Z,99559.09
2022-08-03T14:34:46.448Z,99557.03
2022-08-03T14:37:14.789Z,99562.59
2022-08-03T14:40:00.445Z,99562.72
2022-08-03T14:42:30.510Z,99564.66
2022-08-03T14:45:03.451Z,99565.97
2022-08-03T14:49:02.262Z,99562.56
2022-08-03T14:50:38.588Z,99567.13
2022-08-03T14:53:10.225Z,99561.88
2022-08-03T14:55:49.925Z,99561.63
2022-08-03T14:58:22.091Z,99558.97
2022-08-03T15:00:51.285Z,99561.75
2022-08-03T15:03:23.282Z,99560.06
2022-08-03T15:05:52.227Z,99564.38
2022-08-03T15:08:20.486Z,99562.81
2022-08-03T15:10:49.451Z,99565.50
2022-08-03T15:13:17.952Z,99559.44
2022-08-03T15:15:49.810Z,99566.19
2022-08-03T15:18:18.175Z,99559.13
2022-08-03T15:20:47.250Z,99565.09
2022-08-03T15:23:18.346Z,99565.81
2022-08-03T15:26:31.915Z,99564.63
2022-08-03T15:28:37.318Z,99558.78
2022-08-03T15:31:07.907Z,99556.13
2022-08-03T15:33:36.279Z,99566.94
2022-08-03T15:36:05.069Z,99560.56
2022-08-03T15:38:33.386Z,99564.59
2022-08-03T15:41:01.713Z,99565.56
2022-08-03T15:43:30.025Z,99571.19
2022-08-03T15:46:27.587Z,99561.53
2022-08-03T15:48:48.616Z,99567.78
2022-08-03T15:51:17.532Z,99573.28
2022-08-03T15:53:45.830Z,99575.75
2022-08-03T15:56:18.452Z,99570.88
2022-08-03T15:59:10.003Z,99576.47
2022-08-03T16:01:35.668Z,99578.47
2022-08-03T16:04:05.394Z,99573.09
2022-08-03T16:06:35.095Z,99578.56
2022-08-03T16:09:05.705Z,99570.84
2022-08-03T16:11:52.868Z,99572.56
2022-08-03T16:14:32.133Z,99569.63
2022-08-03T16:17:04.680Z,99566.28
2022-08-03T16:19:34.512Z,99578.88
2022-08-03T16:22:04.099Z,99571.66
2022-08-03T16:24:32.791Z,99570.94
2022-08-03T16:27:01.692Z,99572.56
2022-08-03T16:29:32.864Z,99576.31
2022-08-03T16:32:09.329Z,99577.03
2022-08-03T16:34:40.184Z,99575.81
2022-08-03T16:37:35.687Z,99580.91
2022-08-03T16:39:57.391Z,99588.66
2022-08-03T16:42:25.676Z,99581.28
2022-08-03T16:44:53.949Z,99584.69
2022-08-03T16:47:22.936Z,99583.25
2022-08-03T16:49:56.257Z,99585.13
2022-08-03T16:52:25.089Z,99583.53
2022-08-03T16:54:54.005Z,99586.56
2022-08-03T16:57:55.680Z,99595.84
2022-08-03T17:00:34.346Z,99596.38
2022-08-03T17:03:04.337Z,99596.81
2022-08-03T17:05:46.873Z,99598.84
2022-08-03T17:08:16.405Z,99603.88
2022-08-03T17:10:54.718Z,99605.88
2022-08-03T17:13:23.061Z,99611.00
2022-08-03T17:16:09.143Z,99606.44
2022-08-03T17:18:49.488Z,99611.66
2022-08-03T17:21:24.260Z,99613.50
2022-08-03T17:23:56.063Z,99622.31
2022-08-03T17:26:28.489Z,99632.00
2022-08-03T17:29:12.796Z,99626.09
2022-08-03T17:31:49.282Z,99627.25
2022-08-03T17:34:18.765Z,99643.75
2022-08-03T17:37:06.006Z,99627.38
2022-08-03T17:42:30.067Z,99635.31
2022-08-03T17:45:07.836Z,99643.50
2022-08-03T17:47:43.940Z,99638.91
2022-08-03T17:50:25.050Z,99645.19
2022-08-03T17:53:07.439Z,99650.22
2022-08-03T17:55:56.226Z,99643.69
2022-08-03T17:58:38.117Z,99640.94
2022-08-03T18:01:59.789Z,99647.16
2022-08-03T18:04:29.601Z,99646.09
2022-08-03T18:07:11.865Z,99652.97
2022-08-03T18:10:05.183Z,99646.78
2022-08-03T18:12:41.809Z,99656.59
2022-08-03T18:18:10.353Z,99664.31
2022-08-03T18:20:42.106Z,99657.28
2022-08-03T18:23:20.389Z,99660.81
2022-08-03T18:25:59.069Z,99664.63
2022-08-03T18:28:31.012Z,99675.88
2022-08-03T18:31:01.419Z,99668.84
2022-08-03T18:34:16.658Z,99673.41
2022-08-03T18:36:30.044Z,99676.75
2022-08-03T18:39:20.325Z,99686.34
2022-08-03T18:41:50.496Z,99682.28
2022-08-03T18:44:38.023Z,99686.66
2022-08-03T18:47:25.939Z,99688.56
2022-08-03T18:50:05.286Z,99692.94
2022-08-03T18:55:32.967Z,99690.50
2022-08-03T18:58:17.763Z,99698.38
2022-08-03T19:00:54.659Z,99700.03
2022-08-03T19:03:42.807Z,99706.28
2022-08-03T19:06:19.863Z,99713.13
2022-08-03T19:08:51.468Z,99705.75
2022-08-03T19:11:27.821Z,99708.19
2022-08-03T19:14:00.611Z,99713.91
2022-08-03T19:16:34.236Z,99720.16
2022-08-03T19:19:02.941Z,99712.53
2022-08-03T19:21:33.889Z,99713.34
2022-08-03T19:24:06.619Z,99717.47
2022-08-03T19:26:39.641Z,99718.56
2022-08-03T19:32:00.033Z,99709.00
2022-08-03T19:34:29.604Z,99720.38
2022-08-03T19:36:58.455Z,99718.44
2022-08-03T19:39:27.361Z,99715.69
2022-08-03T19:42:08.108Z,99716.53
2022-08-03T19:44:43.748Z,99720.63
2022-08-03T19:47:17.054Z,99718.41
2022-08-03T19:50:02.827Z,99711.03
2022-08-03T19:52:36.312Z,99712.00
2022-08-03T19:55:07.209Z,99708.97
2022-08-03T19:57:36.932Z,99715.81
2022-08-03T20:00:08.510Z,99711.72
2022-08-03T20:02:37.038Z,99703.78
2022-08-03T20:05:05.567Z,99709.25
2022-08-03T20:07:47.725Z,99701.84
2022-08-03T20:10:17.588Z,99702.22
2022-08-03T20:12:46.201Z,99700.25
2022-08-03T20:15:18.034Z,99698.25
2022-08-03T20:17:56.449Z,99709.13
2022-08-03T20:20:27.934Z,99712.38
2022-08-03T20:22:57.946Z,99712.16
2022-08-03T20:25:37.678Z,99718.13
2022-08-03T20:28:14.613Z,99714.38
2022-08-03T20:30:46.395Z,99716.28
2022-08-03T20:33:19.055Z,99722.16
2022-08-03T20:35:49.612Z,99723.78
2022-08-03T20:38:19.135Z,99722.72
2022-08-03T20:40:48.603Z,99730.53
2022-08-03T20:43:19.955Z,99728.81
2022-08-03T20:45:59.366Z,99730.41
2022-08-03T20:48:38.687Z,99735.00
2022-08-03T20:51:19.310Z,99735.06
2022-08-03T20:54:00.219Z,99733.41
2022-08-03T20:56:31.903Z,99730.66
2022-08-03T20:59:03.320Z,99739.06
2022-08-03T21:01:36.316Z,99743.66
2022-08-03T21:06:58.404Z,99744.44
2022-08-03T21:09:33.434Z,99747.25
2022-08-03T21:12:02.762Z,99752.13
2022-08-03T21:13:02.204Z,99721.00
2022-08-03T21:13:03.971Z,99665.63
2022-08-03T21:13:07.968Z,99741.50
2022-08-03T21:13:10.446Z,99684.50
2022-08-03T21:14:43.450Z,99748.00
2022-08-03T21:17:31.288Z,99760.53
2022-08-03T21:20:07.954Z,99759.41
2022-08-03T21:22:38.314Z,99759.41
2022-08-03T21:25:09.385Z,99758.38
2022-08-03T21:27:39.466Z,99769.91
2022-08-03T21:30:09.080Z,99768.25
2022-08-03T21:32:40.669Z,99763.28
2022-08-03T21:35:10.751Z,99761.06
2022-08-03T21:37:39.276Z,99766.75
2022-08-03T21:40:08.211Z,99763.13
2022-08-03T21:42:36.532Z,99758.06
2022-08-03T21:45:06.113Z,99757.44
2022-08-03T21:47:37.186Z,99756.88
2022-08-03T21:50:09.831Z,99759.84
2022-08-03T21:52:41.879Z,99760.31
2022-08-03T21:55:18.331Z,99759.91
2022-08-03T21:57:52.517Z,99759.66
2022-08-03T22:00:21.531Z,99763.00
2022-08-03T22:02:54.727Z,99764.44
2022-08-03T22:05:42.467Z,99765.47
2022-08-03T22:08:12.177Z,99765.00
2022-08-03T22:10:40.863Z,99769.75
2022-08-03T22:13:09.424Z,99766.91
2022-08-03T22:15:37.725Z,99779.13
2022-08-03T22:18:06.328Z,99767.47
2022-08-03T22:20:36.091Z,99773.88
2022-08-03T22:23:05.294Z,99772.38
2022-08-03T22:25:34.880Z,99765.31
2022-08-03T22:28:04.165Z,99775.41
2022-08-03T22:30:33.329Z,99777.34
2022-08-03T22:33:02.708Z,99770.91
2022-08-03T22:35:44.253Z,99773.78
2022-08-03T22:38:17.952Z,99765.97
2022-08-03T22:40:48.376Z,99777.25
2022-08-03T22:43:16.835Z,99771.72
2022-08-03T22:46:10.138Z,99776.81
2022-08-03T22:48:35.338Z,99777.56
2022-08-03T22:51:08.924Z,99778.94
2022-08-03T22:53:39.828Z,99777.81
2022-08-03T22:56:08.097Z,99777.47
2022-08-03T22:58:36.339Z,99782.53
2022-08-03T23:01:05.596Z,99780.75
2022-08-03T23:04:01.221Z,99783.31
2022-08-03T23:06:25.177Z,99782.59
2022-08-03T23:08:55.336Z,99787.41
2022-08-03T23:11:25.294Z,99788.84
2022-08-03T23:13:54.976Z,99788.28
2022-08-03T23:16:28.737Z,99786.97
2022-08-03T23:19:16.619Z,99790.03
2022-08-03T23:21:53.924Z,99795.34
2022-08-03T23:24:30.976Z,99792.09
2022-08-03T23:26:59.371Z,99794.22
2022-08-03T23:29:30.578Z,99795.81
2022-08-03T23:31:59.545Z,99796.19
2022-08-03T23:34:46.211Z,99801.00
2022-08-03T23:37:15.337Z,99798.91
2022-08-03T23:39:46.093Z,99798.31
2022-08-03T23:42:14.929Z,99799.72
2022-08-03T23:44:43.798Z,99801.53
2022-08-03T23:47:12.210Z,99805.16
2022-08-03T23:49:40.630Z,99806.41
2022-08-03T23:52:10.447Z,99808.28
2022-08-03T23:54:41.933Z,99808.59
2022-08-03T23:57:19.141Z,99806.53
2022-08-03T23:59:54.940Z,99811.63
